Genua — IIYU — position and weather

sailwx.info

Track history (hours):
 
Tides and Currents Weather Stations Pressure Air Temp Water Temp Dewpoint Dewpoint Depression Visibility Wind Speed Wind Dir Waves Ship Positions

Genua

Last reported at 2015-Mar-27 20:06 UTC. Time now 2015-Mar-27 21:01 UTC.
Position N 44°25' E 008°47'.

Length 35 m; draft 6 m.

Type: Tug. MMSI: 247204000.

Date/timePositionNaut miles runAvg speedWind from/ knotsBaromVisibWave heightAir tempDewpointWater temp
2015-Mar-27 20:06N 44°25' E 008°47'0 0.9
2015-Mar-27 19:33N 44°25' E 008°47'0 0.4
2015-Mar-27 18:13N 44°25' E 008°47'0 0.1
2015-Mar-27 11:33N 44°25' E 008°47'0 0.1
2015-Mar-27 07:22N 44°25' E 008°47'0 0.0
2015-Mar-27 06:30N 44°25' E 008°47'0 0.0
2015-Mar-27 05:33N 44°25' E 008°47'0 0.0
2015-Mar-27 04:31N 44°25' E 008°47'0 0.0
2015-Mar-27 03:33N 44°25' E 008°47'0 0.0
2015-Mar-27 02:28N 44°25' E 008°47'0 0.0
2015-Mar-27 01:30N 44°25' E 008°47'0 0.0
2015-Mar-27 00:33N 44°25' E 008°47'0 0.0
2015-Mar-26 23:33N 44°25' E 008°47'0 0.0
2015-Mar-26 22:33N 44°25' E 008°47'0 0.0
2015-Mar-26 21:32N 44°25' E 008°47'0 0.0
2015-Mar-26 20:32N 44°25' E 008°47'0 0.0
2015-Mar-26 19:32N 44°25' E 008°47'0 0.0
2015-Mar-26 18:19N 44°25' E 008°47'2 2.4
2015-Mar-26 17:29N 44°25' E 008°49'0 0.5
2015-Mar-26 16:33N 44°25' E 008°49'1 1.3
2015-Mar-26 15:32N 44°25' E 008°47'0 0.4
2015-Mar-26 14:32N 44°25' E 008°47'0 0.0
2015-Mar-26 13:33N 44°25' E 008°47'0 0.2
2015-Mar-26 11:33N 44°25' E 008°46'0 0.3
2015-Mar-26 10:32N 44°25' E 008°47'0 0.0
2015-Mar-26 09:30N 44°25' E 008°47'0 0.0
2015-Mar-26 08:25N 44°25' E 008°47'0 0.0
2015-Mar-26 06:20N 44°25' E 008°47'0 0.0
2015-Mar-26 04:25N 44°25' E 008°47'0 0.0
2015-Mar-25 21:11N 44°25' E 008°47'0 0.0
2015-Mar-25 20:21N 44°25' E 008°47'0 0.0
2015-Mar-25 19:32N 44°25' E 008°47'0 0.0
2015-Mar-25 17:21N 44°25' E 008°47'0 0.1
2015-Mar-25 15:33N 44°25' E 008°47'0 0.2
2015-Mar-25 14:33N 44°25' E 008°47'1 0.5
2015-Mar-25 13:29N 44°25' E 008°47'1 0.9
2015-Mar-25 12:33N 44°25' E 008°46'1 0.4
2015-Mar-25 10:33N 44°25' E 008°47'1 0.3
2015-Mar-25 08:29N 44°25' E 008°47'0 0.5
2015-Mar-25 07:33N 44°25' E 008°47'0 0.5
2015-Mar-25 06:31N 44°25' E 008°47'0 0.0
2015-Mar-25 05:33N 44°25' E 008°47'0 0.0
2015-Mar-25 04:33N 44°25' E 008°47'0 0.0
2015-Mar-25 03:28N 44°25' E 008°47'0 0.0
2015-Mar-25 02:33N 44°25' E 008°47'0 0.0
2015-Mar-25 01:27N 44°25' E 008°47'0 0.0
2015-Mar-25 00:30N 44°25' E 008°47'0 0.0
2015-Mar-24 23:33N 44°25' E 008°47'0 0.0
2015-Mar-24 22:33N 44°25' E 008°47'0 0.0
2015-Mar-24 21:32N 44°25' E 008°47'0 0.0
2015-Mar-24 20:33N 44°25' E 008°47'0 0.0
2015-Mar-24 19:33N 44°25' E 008°47'0 0.0
2015-Mar-24 18:32N 44°25' E 008°47'0 0.0
2015-Mar-24 17:28N 44°25' E 008°47'0 0.0
2015-Mar-24 16:31N 44°25' E 008°47'0 0.0
2015-Mar-24 13:14N 44°25' E 008°47'0 0.0
2015-Mar-24 12:22N 44°25' E 008°47'0 0.0
2015-Mar-24 11:26N 44°25' E 008°47'0 0.4
2015-Mar-24 10:33N 44°25' E 008°47'2 1.9
2015-Mar-24 09:33N 44°25' E 008°50'1 1.4
2015-Mar-24 08:33N 44°25' E 008°48'1 0.9
2015-Mar-24 07:33N 44°25' E 008°47'0 0.1
2015-Mar-24 02:06N 44°25' E 008°47'0 0.0
2015-Mar-23 10:05N 44°25' E 008°47'0 0.5
2015-Mar-23 09:33N 44°25' E 008°47'0 0.1
2015-Mar-23 03:17N 44°25' E 008°47'0 0.0
2015-Mar-22 20:19N 44°25' E 008°46'0 0.1
2015-Mar-22 18:17N 44°25' E 008°47'0 0.3
2015-Mar-22 17:21N 44°25' E 008°47'2 0.6
2015-Mar-22 14:04N 44°25' E 008°50'3 3.9
2015-Mar-22 13:25N 44°25' E 008°46'0 0.1
2015-Mar-22 07:27N 44°25' E 008°47'0 0.1
2015-Mar-22 06:33N 44°25' E 008°47'0 0.0
2015-Mar-22 05:28N 44°25' E 008°47'0 0.0
2015-Mar-22 04:30N 44°25' E 008°47'0 0.0
2015-Mar-22 03:30N 44°25' E 008°47'0 0.0
2015-Mar-22 02:28N 44°25' E 008°47'0 0.0
2015-Mar-22 01:31N 44°25' E 008°47'0 0.0
2015-Mar-22 00:25N 44°25' E 008°47'0 0.0
2015-Mar-21 23:22N 44°25' E 008°47'0 0.0
2015-Mar-21 22:33N 44°25' E 008°47'0 0.0
2015-Mar-21 21:30N 44°25' E 008°47'0 0.0
2015-Mar-21 20:30N 44°25' E 008°47'0 0.0
2015-Mar-21 19:32N 44°25' E 008°47'0 0.0
2015-Mar-21 18:30N 44°25' E 008°47'0 0.0
2015-Mar-21 17:32N 44°25' E 008°47'0 0.0
2015-Mar-21 16:33N 44°25' E 008°47'0 0.0
2015-Mar-21 15:26N 44°25' E 008°47'0 0.0
2015-Mar-21 13:33N 44°25' E 008°47'0 0.0
2015-Mar-21 12:27N 44°25' E 008°47'0 0.0
2015-Mar-21 11:11N 44°25' E 008°47'0 0.0
2015-Mar-21 10:26N 44°25' E 008°47'0 0.0
2015-Mar-21 09:32N 44°25' E 008°47'0 0.0
2015-Mar-21 08:33N 44°25' E 008°47'0 0.0
2015-Mar-21 07:32N 44°25' E 008°47'0 0.1
2015-Mar-21 05:22N 44°25' E 008°47'0 0.0
2015-Mar-21 04:13N 44°25' E 008°47'0 0.0
2015-Mar-21 03:21N 44°25' E 008°47'0 0.0
2015-Mar-21 02:26N 44°25' E 008°47'0 0.0
2015-Mar-21 01:12N 44°25' E 008°47'0 0.0
2015-Mar-21 00:27N 44°25' E 008°47'0 0.2
2015-Mar-20 23:33N 44°25' E 008°46'6 6.0
2015-Mar-20 22:33N 44°24' E 008°55'0 0.5
2015-Mar-20 21:33N 44°24' E 008°55'1 0.8
2015-Mar-20 20:33N 44°24' E 008°56'0 0.4
2015-Mar-20 19:33N 44°24' E 008°56'0 0.5
2015-Mar-20 18:33N 44°24' E 008°55'0 0.4
2015-Mar-20 17:33N 44°24' E 008°54'0 0.3
2015-Mar-20 16:33N 44°24' E 008°55'2 1.8
2015-Mar-20 15:33N 44°24' E 008°52'4 1.4
2015-Mar-20 12:30N 44°25' E 008°47'1 0.4
2015-Mar-20 10:33N 44°25' E 008°48'2 1.5
2015-Mar-20 09:31N 44°25' E 008°46'1 0.1
2015-Mar-20 04:18N 44°25' E 008°47'0 0.0
2015-Mar-20 03:33N 44°25' E 008°47'0 0.0
2015-Mar-20 01:28N 44°25' E 008°47'0 0.0
2015-Mar-20 00:22N 44°25' E 008°47'0 0.0
2015-Mar-19 22:33N 44°25' E 008°47'0 0.0
2015-Mar-19 19:33N 44°25' E 008°47'0 0.0
2015-Mar-19 17:33N 44°25' E 008°47'0 0.0
2015-Mar-19 16:17N 44°25' E 008°47'0 0.0
2015-Mar-19 15:33N 44°25' E 008°47'0 0.1
2015-Mar-19 11:33N 44°25' E 008°47'0 0.5
2015-Mar-19 10:33N 44°25' E 008°47'0 0.0
2015-Mar-19 09:33N 44°25' E 008°47'0 0.0
2015-Mar-19 08:26N 44°25' E 008°47'0 0.0
2015-Mar-19 05:32N 44°25' E 008°47'0 0.5
2015-Mar-19 04:33N 44°25' E 008°46'0 0.5
2015-Mar-19 03:33N 44°25' E 008°47'0 0.0
2015-Mar-19 02:24N 44°25' E 008°47'0 0.0
2015-Mar-19 01:30N 44°25' E 008°47'0 0.0
2015-Mar-19 00:28N 44°25' E 008°47'0 0.0
2015-Mar-18 22:23N 44°25' E 008°47'1 0.7
2015-Mar-18 21:33N 44°25' E 008°47'1 0.6
2015-Mar-18 20:33N 44°25' E 008°47'0 0.0
2015-Mar-18 19:33N 44°25' E 008°47'0 0.0
2015-Mar-18 18:32N 44°25' E 008°47'0 0.0
2015-Mar-18 17:33N 44°25' E 008°47'0 0.0
2015-Mar-18 16:27N 44°25' E 008°47'0 0.0
2015-Mar-18 15:32N 44°25' E 008°47'0 0.0
2015-Mar-18 14:28N 44°25' E 008°47'0 0.0
2015-Mar-18 13:29N 44°25' E 008°47'0 0.0
2015-Mar-18 12:26N 44°25' E 008°47'0 0.0
2015-Mar-18 10:23N 44°25' E 008°47'1 0.5
2015-Mar-18 07:33N 44°25' E 008°48'0 0.2
2015-Mar-18 06:33N 44°25' E 008°48'1 0.1
2015-Mar-17 23:12N 44°25' E 008°47'1 0.9
2015-Mar-17 22:33N 44°25' E 008°48'1 0.9
2015-Mar-17 21:26N 44°25' E 008°46'  
Track history (hours):
 
Tides and Currents Weather Stations Pressure Air Temp Water Temp Dewpoint Dewpoint Depression Visibility Wind Speed Wind Dir Waves Ship Positions

Genua

Last reported at 2015-Mar-27 20:06 UTC. Time now 2015-Mar-27 21:01 UTC.
Position N 44°25' E 008°47'.

Length 35 m; draft 6 m.

Type: Tug. MMSI: 247204000.

Date/timePositionNaut miles runAvg speedWind from/ knotsBaromVisibWave heightAir tempDewpointWater temp
2015-Mar-27 20:06N 44°25' E 008°47'0 0.9
2015-Mar-27 19:33N 44°25' E 008°47'0 0.4
2015-Mar-27 18:13N 44°25' E 008°47'0 0.1
2015-Mar-27 11:33N 44°25' E 008°47'0 0.1
2015-Mar-27 07:22N 44°25' E 008°47'0 0.0
2015-Mar-27 06:30N 44°25' E 008°47'0 0.0
2015-Mar-27 05:33N 44°25' E 008°47'0 0.0
2015-Mar-27 04:31N 44°25' E 008°47'0 0.0
2015-Mar-27 03:33N 44°25' E 008°47'0 0.0
2015-Mar-27 02:28N 44°25' E 008°47'0 0.0
2015-Mar-27 01:30N 44°25' E 008°47'0 0.0
2015-Mar-27 00:33N 44°25' E 008°47'0 0.0
2015-Mar-26 23:33N 44°25' E 008°47'0 0.0
2015-Mar-26 22:33N 44°25' E 008°47'0 0.0
2015-Mar-26 21:32N 44°25' E 008°47'0 0.0
2015-Mar-26 20:32N 44°25' E 008°47'0 0.0
2015-Mar-26 19:32N 44°25' E 008°47'0 0.0
2015-Mar-26 18:19N 44°25' E 008°47'2 2.4
2015-Mar-26 17:29N 44°25' E 008°49'0 0.5
2015-Mar-26 16:33N 44°25' E 008°49'1 1.3
2015-Mar-26 15:32N 44°25' E 008°47'0 0.4
2015-Mar-26 14:32N 44°25' E 008°47'0 0.0
2015-Mar-26 13:33N 44°25' E 008°47'0 0.2
2015-Mar-26 11:33N 44°25' E 008°46'0 0.3
2015-Mar-26 10:32N 44°25' E 008°47'0 0.0
2015-Mar-26 09:30N 44°25' E 008°47'0 0.0
2015-Mar-26 08:25N 44°25' E 008°47'0 0.0
2015-Mar-26 06:20N 44°25' E 008°47'0 0.0
2015-Mar-26 04:25N 44°25' E 008°47'0 0.0
2015-Mar-25 21:11N 44°25' E 008°47'0 0.0
2015-Mar-25 20:21N 44°25' E 008°47'0 0.0
2015-Mar-25 19:32N 44°25' E 008°47'0 0.0
2015-Mar-25 17:21N 44°25' E 008°47'0 0.1
2015-Mar-25 15:33N 44°25' E 008°47'0 0.2
2015-Mar-25 14:33N 44°25' E 008°47'1 0.5
2015-Mar-25 13:29N 44°25' E 008°47'1 0.9
2015-Mar-25 12:33N 44°25' E 008°46'1 0.4
2015-Mar-25 10:33N 44°25' E 008°47'1 0.3
2015-Mar-25 08:29N 44°25' E 008°47'0 0.5
2015-Mar-25 07:33N 44°25' E 008°47'0 0.5
2015-Mar-25 06:31N 44°25' E 008°47'0 0.0
2015-Mar-25 05:33N 44°25' E 008°47'0 0.0
2015-Mar-25 04:33N 44°25' E 008°47'0 0.0
2015-Mar-25 03:28N 44°25' E 008°47'0 0.0
2015-Mar-25 02:33N 44°25' E 008°47'0 0.0
2015-Mar-25 01:27N 44°25' E 008°47'0 0.0
2015-Mar-25 00:30N 44°25' E 008°47'0 0.0
2015-Mar-24 23:33N 44°25' E 008°47'0 0.0
2015-Mar-24 22:33N 44°25' E 008°47'0 0.0
2015-Mar-24 21:32N 44°25' E 008°47'0 0.0
2015-Mar-24 20:33N 44°25' E 008°47'0 0.0
2015-Mar-24 19:33N 44°25' E 008°47'0 0.0
2015-Mar-24 18:32N 44°25' E 008°47'0 0.0
2015-Mar-24 17:28N 44°25' E 008°47'0 0.0
2015-Mar-24 16:31N 44°25' E 008°47'0 0.0
2015-Mar-24 13:14N 44°25' E 008°47'0 0.0
2015-Mar-24 12:22N 44°25' E 008°47'0 0.0
2015-Mar-24 11:26N 44°25' E 008°47'0 0.4
2015-Mar-24 10:33N 44°25' E 008°47'2 1.9
2015-Mar-24 09:33N 44°25' E 008°50'1 1.4
2015-Mar-24 08:33N 44°25' E 008°48'1 0.9
2015-Mar-24 07:33N 44°25' E 008°47'0 0.1
2015-Mar-24 02:06N 44°25' E 008°47'0 0.0
2015-Mar-23 10:05N 44°25' E 008°47'0 0.5
2015-Mar-23 09:33N 44°25' E 008°47'0 0.1
2015-Mar-23 03:17N 44°25' E 008°47'0 0.0
2015-Mar-22 20:19N 44°25' E 008°46'0 0.1
2015-Mar-22 18:17N 44°25' E 008°47'0 0.3
2015-Mar-22 17:21N 44°25' E 008°47'2 0.6
2015-Mar-22 14:04N 44°25' E 008°50'3 3.9
2015-Mar-22 13:25N 44°25' E 008°46'0 0.1
2015-Mar-22 07:27N 44°25' E 008°47'0 0.1
2015-Mar-22 06:33N 44°25' E 008°47'0 0.0
2015-Mar-22 05:28N 44°25' E 008°47'0 0.0
2015-Mar-22 04:30N 44°25' E 008°47'0 0.0
2015-Mar-22 03:30N 44°25' E 008°47'0 0.0
2015-Mar-22 02:28N 44°25' E 008°47'0 0.0
2015-Mar-22 01:31N 44°25' E 008°47'0 0.0
2015-Mar-22 00:25N 44°25' E 008°47'0 0.0
2015-Mar-21 23:22N 44°25' E 008°47'0 0.0
2015-Mar-21 22:33N 44°25' E 008°47'0 0.0
2015-Mar-21 21:30N 44°25' E 008°47'0 0.0
2015-Mar-21 20:30N 44°25' E 008°47'0 0.0
2015-Mar-21 19:32N 44°25' E 008°47'0 0.0
2015-Mar-21 18:30N 44°25' E 008°47'0 0.0
2015-Mar-21 17:32N 44°25' E 008°47'0 0.0
2015-Mar-21 16:33N 44°25' E 008°47'0 0.0
2015-Mar-21 15:26N 44°25' E 008°47'0 0.0
2015-Mar-21 13:33N 44°25' E 008°47'0 0.0
2015-Mar-21 12:27N 44°25' E 008°47'0 0.0
2015-Mar-21 11:11N 44°25' E 008°47'0 0.0
2015-Mar-21 10:26N 44°25' E 008°47'0 0.0
2015-Mar-21 09:32N 44°25' E 008°47'0 0.0
2015-Mar-21 08:33N 44°25' E 008°47'0 0.0
2015-Mar-21 07:32N 44°25' E 008°47'0 0.1
2015-Mar-21 05:22N 44°25' E 008°47'0 0.0
2015-Mar-21 04:13N 44°25' E 008°47'0 0.0
2015-Mar-21 03:21N 44°25' E 008°47'0 0.0
2015-Mar-21 02:26N 44°25' E 008°47'0 0.0
2015-Mar-21 01:12N 44°25' E 008°47'0 0.0
2015-Mar-21 00:27N 44°25' E 008°47'0 0.2
2015-Mar-20 23:33N 44°25' E 008°46'6 6.0
2015-Mar-20 22:33N 44°24' E 008°55'0 0.5
2015-Mar-20 21:33N 44°24' E 008°55'1 0.8
2015-Mar-20 20:33N 44°24' E 008°56'0 0.4
2015-Mar-20 19:33N 44°24' E 008°56'0 0.5
2015-Mar-20 18:33N 44°24' E 008°55'0 0.4
2015-Mar-20 17:33N 44°24' E 008°54'0 0.3
2015-Mar-20 16:33N 44°24' E 008°55'2 1.8
2015-Mar-20 15:33N 44°24' E 008°52'4 1.4
2015-Mar-20 12:30N 44°25' E 008°47'1 0.4
2015-Mar-20 10:33N 44°25' E 008°48'2 1.5
2015-Mar-20 09:31N 44°25' E 008°46'1 0.1
2015-Mar-20 04:18N 44°25' E 008°47'0 0.0
2015-Mar-20 03:33N 44°25' E 008°47'0 0.0
2015-Mar-20 01:28N 44°25' E 008°47'0 0.0
2015-Mar-20 00:22N 44°25' E 008°47'0 0.0
2015-Mar-19 22:33N 44°25' E 008°47'0 0.0
2015-Mar-19 19:33N 44°25' E 008°47'0 0.0
2015-Mar-19 17:33N 44°25' E 008°47'0 0.0
2015-Mar-19 16:17N 44°25' E 008°47'0 0.0
2015-Mar-19 15:33N 44°25' E 008°47'0 0.1
2015-Mar-19 11:33N 44°25' E 008°47'0 0.5
2015-Mar-19 10:33N 44°25' E 008°47'0 0.0
2015-Mar-19 09:33N 44°25' E 008°47'0 0.0
2015-Mar-19 08:26N 44°25' E 008°47'0 0.0
2015-Mar-19 05:32N 44°25' E 008°47'0 0.5
2015-Mar-19 04:33N 44°25' E 008°46'0 0.5
2015-Mar-19 03:33N 44°25' E 008°47'0 0.0
2015-Mar-19 02:24N 44°25' E 008°47'0 0.0
2015-Mar-19 01:30N 44°25' E 008°47'0 0.0
2015-Mar-19 00:28N 44°25' E 008°47'0 0.0
2015-Mar-18 22:23N 44°25' E 008°47'1 0.7
2015-Mar-18 21:33N 44°25' E 008°47'1 0.6
2015-Mar-18 20:33N 44°25' E 008°47'0 0.0
2015-Mar-18 19:33N 44°25' E 008°47'0 0.0
2015-Mar-18 18:32N 44°25' E 008°47'0 0.0
2015-Mar-18 17:33N 44°25' E 008°47'0 0.0
2015-Mar-18 16:27N 44°25' E 008°47'0 0.0
2015-Mar-18 15:32N 44°25' E 008°47'0 0.0
2015-Mar-18 14:28N 44°25' E 008°47'0 0.0
2015-Mar-18 13:29N 44°25' E 008°47'0 0.0
2015-Mar-18 12:26N 44°25' E 008°47'0 0.0
2015-Mar-18 10:23N 44°25' E 008°47'1 0.5
2015-Mar-18 07:33N 44°25' E 008°48'0 0.2
2015-Mar-18 06:33N 44°25' E 008°48'1 0.1
2015-Mar-17 23:12N 44°25' E 008°47'1 0.9
2015-Mar-17 22:33N 44°25' E 008°48'1 0.9
2015-Mar-17 21:26N 44°25' E 008°46'  

Dump ship's entire track history